SBOSBO LIS / LPPT
Speedbird OnlineSpeedbird Online LIS / LPPT

Humberto Delgado Airport (Lisbon Portela Airport)
09:23 16.7°C

Location Lisbon, Portugal
Latitude: 38.7813
Longitude: -9.13592
Web Airport Website | Wikipedia
Altitude 114 Meter / 374 Feet
Distance 1,588 KM / 987 Miles
from London.
Time Zone UTC +1 hours (Europe/Lisbon)
Codes IATA: LIS
ICAO: LPPT
Currency £1 equals EUR 1.15
Runways
RunwayLength (m)Surface
023805Asphalt
172400Asphalt
203805Asphalt
352400Asphalt
Radio
TypeDescriptionFrequency
APPAPP119.1
ATISATIS124.15
CLDCLD118.95
GNDGND121.75
INFOINFO123.75
RDORDO127.9
TWRTWR118.1
Live ATC
METAR LPPT 060800Z 02004KT 330V050 9999 FEW010 17/14 Q1022
TAF TAF LPPT 060500Z 0606/0712 VRB05KT CAVOK PROB30 0612/0616 24005KT BECMG 0616/0618 34012KT BECMG 0621/0624 34005KT BECMG 0703/0706 09005KT
Weather As Of 06 Oct 2022 09:23
Description Mist
Wind 7 km/h from North (20°)
Cloud Cover 20%
Precipitation Rain: none, Snow: none
Sunrise 07:36
Sunset 19:12
Lounges Blue Lounge (Temporariy closed), Terminal 1
ANA Lounge , Terminal 1
Rotations During the last 90 days there were
302 flights from LHR
299 flights to LHR
1 flights to LGW


© 2017-2022 Speedbird Online